British Envoy — MNAN4 — position and weather

sailwx.info

Track history (hours):
 
Tides and Currents Weather Stations Pressure Air Temp Water Temp Dewpoint Dewpoint Depression Visibility Wind Speed Wind Dir Waves Ship Positions

British Envoy

Last reported at 2015-May-29 02:04 UTC. Time now 2015-May-29 08:22 UTC.
Position S 33°49' E 018°27'.

Length 184.2 m; beam 27.4 m; draft 11.3 m.

Type: Tanker. MMSI: 235011280.

Date/timePositionNaut miles runAvg speedWind from/ knotsBaromVisibWave heightAir tempDewpointWater temp
2015-May-29 02:04S 33°49' E 018°27'0 0.0
2015-May-29 00:10S 33°49' E 018°27'0 0.0
2015-May-28 20:10S 33°49' E 018°27'0 0.0
2015-May-28 19:25S 33°49' E 018°27'0 0.0
2015-May-28 18:31S 33°49' E 018°27'0 0.0
2015-May-28 17:19S 33°49' E 018°27'0 0.0
2015-May-28 16:31S 33°49' E 018°27'0 0.0
2015-May-28 15:25S 33°49' E 018°27'0 0.0
2015-May-28 14:31S 33°49' E 018°27'0 0.0
2015-May-28 12:28S 33°49' E 018°27'0 0.0
2015-May-28 11:07S 33°49' E 018°27'0 0.0
2015-May-28 09:22S 33°49' E 018°27'0 0.0
2015-May-28 04:10S 33°49' E 018°27'0 0.0
2015-May-28 03:25S 33°49' E 018°27'0 0.0
2015-May-28 01:28S 33°49' E 018°27'0 0.0
2015-May-28 00:25S 33°49' E 018°27'0 0.0
2015-May-27 23:16S 33°49' E 018°27'0 0.0
2015-May-27 19:10S 33°49' E 018°27'0 0.0
2015-May-27 18:28S 33°49' E 018°27'0 0.0
2015-May-27 17:10S 33°49' E 018°27'0 0.0
2015-May-27 16:31S 33°49' E 018°27'0 0.0
2015-May-27 15:31S 33°49' E 018°27'0 0.0
2015-May-27 14:28S 33°49' E 018°27'0 0.0
2015-May-27 13:22S 33°49' E 018°27'0 0.0
2015-May-27 12:28S 33°49' E 018°27'0 0.0
2015-May-27 11:25S 33°49' E 018°27'0 0.1
2015-May-27 10:22S 33°49' E 018°27'0 0.0
2015-May-27 09:13S 33°49' E 018°27'0 0.1
2015-May-27 08:32S 33°49' E 018°26'6 6.1
2015-May-27 07:31S 33°53' E 018°21'164 6.5
2015-May-26 06:19S 34°53' E 021°25'2411.2
2015-May-26 04:11S 34°49' E 021°54'199 4.6
2015-May-24 08:28S 33°52' E 025°45'5 2.0
2015-May-24 06:00S 33°48' E 025°42'5 1.3 999 / 31017.1 5.4 18.014.618.0
2015-May-24 02:07S 33°52' E 025°45'0 0.0
2015-May-24 01:31S 33°52' E 025°45'0 0.0
2015-May-24 00:09S 33°52' E 025°45'0 0.0
2015-May-23 19:03S 33°52' E 025°45'  
2015-May-20 23:18S 33°02' E 028°03'9 2.1
2015-May-20 19:12S 33°07' E 027°55'3 1.7
2015-May-20 17:19S 33°08' E 027°51'290 7.7
2015-May-19 03:29S 34°10' E 022°11'  
Track history (hours):
 
Tides and Currents Weather Stations Pressure Air Temp Water Temp Dewpoint Dewpoint Depression Visibility Wind Speed Wind Dir Waves Ship Positions

British Envoy

Last reported at 2015-May-29 02:04 UTC. Time now 2015-May-29 08:22 UTC.
Position S 33°49' E 018°27'.

Length 184.2 m; beam 27.4 m; draft 11.3 m.

Type: Tanker. MMSI: 235011280.

Date/timePositionNaut miles runAvg speedWind from/ knotsBaromVisibWave heightAir tempDewpointWater temp
2015-May-29 02:04S 33°49' E 018°27'0 0.0
2015-May-29 00:10S 33°49' E 018°27'0 0.0
2015-May-28 20:10S 33°49' E 018°27'0 0.0
2015-May-28 19:25S 33°49' E 018°27'0 0.0
2015-May-28 18:31S 33°49' E 018°27'0 0.0
2015-May-28 17:19S 33°49' E 018°27'0 0.0
2015-May-28 16:31S 33°49' E 018°27'0 0.0
2015-May-28 15:25S 33°49' E 018°27'0 0.0
2015-May-28 14:31S 33°49' E 018°27'0 0.0
2015-May-28 12:28S 33°49' E 018°27'0 0.0
2015-May-28 11:07S 33°49' E 018°27'0 0.0
2015-May-28 09:22S 33°49' E 018°27'0 0.0
2015-May-28 04:10S 33°49' E 018°27'0 0.0
2015-May-28 03:25S 33°49' E 018°27'0 0.0
2015-May-28 01:28S 33°49' E 018°27'0 0.0
2015-May-28 00:25S 33°49' E 018°27'0 0.0
2015-May-27 23:16S 33°49' E 018°27'0 0.0
2015-May-27 19:10S 33°49' E 018°27'0 0.0
2015-May-27 18:28S 33°49' E 018°27'0 0.0
2015-May-27 17:10S 33°49' E 018°27'0 0.0
2015-May-27 16:31S 33°49' E 018°27'0 0.0
2015-May-27 15:31S 33°49' E 018°27'0 0.0
2015-May-27 14:28S 33°49' E 018°27'0 0.0
2015-May-27 13:22S 33°49' E 018°27'0 0.0
2015-May-27 12:28S 33°49' E 018°27'0 0.0
2015-May-27 11:25S 33°49' E 018°27'0 0.1
2015-May-27 10:22S 33°49' E 018°27'0 0.0
2015-May-27 09:13S 33°49' E 018°27'0 0.1
2015-May-27 08:32S 33°49' E 018°26'6 6.1
2015-May-27 07:31S 33°53' E 018°21'164 6.5
2015-May-26 06:19S 34°53' E 021°25'2411.2
2015-May-26 04:11S 34°49' E 021°54'199 4.6
2015-May-24 08:28S 33°52' E 025°45'5 2.0
2015-May-24 06:00S 33°48' E 025°42'5 1.3 999 / 31017.1 5.4 18.014.618.0
2015-May-24 02:07S 33°52' E 025°45'0 0.0
2015-May-24 01:31S 33°52' E 025°45'0 0.0
2015-May-24 00:09S 33°52' E 025°45'0 0.0
2015-May-23 19:03S 33°52' E 025°45'  
2015-May-20 23:18S 33°02' E 028°03'9 2.1
2015-May-20 19:12S 33°07' E 027°55'3 1.7
2015-May-20 17:19S 33°08' E 027°51'290 7.7
2015-May-19 03:29S 34°10' E 022°11'  

Dump ship's entire track history